Página principal
METAR-TAF:

METAR-TAF

Aeroportos :

Aeroporto Internacional de Bagdad

Bagdá, Iraque

latitude: 33-15-45N, longitude: 44-14-04E, altura: 35 m

Observação actual do tempo

O boletim foi feito há 1 hora e 4 minutos, às 06:00 UTC
Vento 1 kt com direcção variável
Temperatura 16°C
Humidade 94%
Pressão 1024 hPa
Visibilidade: 2600 m
neblina

METAR: ORBI 170600Z VRB01KT 8000 2600 BR NSC 16/15 Q1024 NOSIG

Hora: 10:04 (07:04 UTC)

Previsão

O boletim foi feito há 3 horas e 4 minutos, às 04:00 UTC
Previsão válida de 17 às 06 UTC a 18 às 06 UTC
Vento 6 kt de oes-noroeste
Visibilidade: 8000 m

TAF: ORBI 170400Z 1706/1806 30006KT 8000 NSC

Observações e previsões do tempo de mais de 4000 aeroportos (mensagens METAR e TAF).

As estações disponíveis são os pontos amarelos e vermelhos sobre o mapa.

Mova o rato sobre o mapa para ver o nome da estação.

Depois clique no ponto para visualizar as observações e previsões meteorológicas.

Para alterar o mapa : clique nos botões verdes com uma cruz preta para aumentar o zoom; no botão verde com uma pitada de zoom; ou nas setas verdes para mapas adjacentes.


METAR-TAF: